Strona główna
METAR-TAF:

METAR-TAF

Lotnisko :

Chester, Connecticut, Stany Zjednoczone

Szerokość geograficzna: 41-23-02N, Długość geograficzna: 072-30-21W, wysokość: 127 m

Aktualna obserwacja pogody

Raport powstał 11 minut temu, godzina 23:55 UTC
Wiatr 6 kt od północny zachód
Temperatura -3°C
Wilgotność 28%
Ciśnienie 1034 hPa
Widzialność: 16.1 km
bezchmurnie

METAR: KSNC 192355Z AUTO 32006KT 10SM CLR M03/M19 A3052 RMK AO2

czas: 19:06 (00:06 UTC)


TAF: brakujący

Obserwacja i prognoza pogody dla ponad 4000 lotnisk (raport METAR i TAF).

Dostępne stacje oznaczono żółtymi i czerwonymi punktami na mapie.

Najedź kursorem aby zobaczyć nazwę stacji.

Kliknij aby zobaczyć obserwacje i prognozy pogody.

Aby zmienić mapę: kliknij na zielony przycisk z czarnym krzyżykiem, aby powiększyć; na zielony przycisk z myślnikiem, aby pomniejszyć; na zielone strzałki, aby przejść do map sąsiednich.


METAR-TAF: